Tumeremo, Venezuela
Current Conditions -  °F | °C
As of 7:00 PM on Friday 28 Nov 2014 (Local Time) from SYCJ Reporting Station
Broken Clouds Broken Clouds  
Wind Chill: 77°   Ceiling: 29000
Heat Index: 78°   Visibility: 6mi
Dew Point: 75°   Wind: 7mph
Humidity: 94%   Direction: 20°NNE
Pressure: 29.85"   Gusts: NA
Location:  7.29°N, 61.48°W
Report Text: SYCJ 282300Z 02006KT 9999 FEW017CB BKN290 25/24 Q1011 CB-S
Loading
Personal Weather Stations






























Interactive Weather Map New forecast layout! Learn more

10-Day Weather Forecast

Advertisements
Track Severe Weather on mobile